sensor_id;sensor_type;location;lat;lon;timestamp;pressure;altitude;pressure_sealevel;temperature;humidity
42519;BME280;28147;47.520;18.920;2023-12-20T02:31:32;98303.13;;;1.75;71.02
42519;BME280;28147;47.520;18.920;2023-12-20T02:33:57;98303.59;;;1.55;71.75
42519;BME280;28147;47.520;18.920;2023-12-20T04:29:02;98227.78;;;0.93;73.47
42519;BME280;28147;47.520;18.920;2023-12-20T06:31:06;98139.03;;;-0.25;71.99
42519;BME280;28147;47.520;18.920;2023-12-20T07:22:24;98172.13;;;0.68;73.33
42519;BME280;28147;47.520;18.920;2023-12-20T07:25:39;98183.41;;;0.54;73.83
42519;BME280;28147;47.520;18.920;2023-12-20T07:45:53;98163.81;;;0.41;75.54
42519;BME280;28147;47.520;18.920;2023-12-20T07:48:18;98177.47;;;0.97;74.17
42519;BME280;28147;47.520;18.920;2023-12-20T07:51:53;98175.94;;;1.03;73.97
42519;BME280;28147;47.520;18.920;2023-12-20T07:55:31;98169.53;;;1.20;73.78
42519;BME280;28147;47.520;18.920;2023-12-20T07:57:57;98165.03;;;1.74;71.75
42519;BME280;28147;47.520;18.920;2023-12-20T08:00:23;98162.06;;;2.13;70.82
42519;BME280;28147;47.520;18.920;2023-12-20T08:02:48;98154.53;;;2.25;70.67
42519;BME280;28147;47.520;18.920;2023-12-20T08:12:47;98152.81;;;3.09;69.34
42519;BME280;28147;47.520;18.920;2023-12-20T08:15:12;98156.84;;;3.05;69.93
42519;BME280;28147;47.520;18.920;2023-12-20T08:17:38;98152.00;;;3.72;69.00
42519;BME280;28147;47.520;18.920;2023-12-20T08:20:03;98157.97;;;4.00;67.04
42519;BME280;28147;47.520;18.920;2023-12-20T08:22:29;98156.94;;;4.01;67.62
42519;BME280;28147;47.520;18.920;2023-12-20T08:24:55;98160.44;;;3.60;67.90
42519;BME280;28147;47.520;18.920;2023-12-20T08:27:21;98171.19;;;4.13;67.55
42519;BME280;28147;47.520;18.920;2023-12-20T08:29:46;98164.97;;;4.34;66.89
42519;BME280;28147;47.520;18.920;2023-12-20T08:32:12;98164.63;;;4.77;67.39
42519;BME280;28147;47.520;18.920;2023-12-20T08:34:38;98167.47;;;4.76;68.75
42519;BME280;28147;47.520;18.920;2023-12-20T08:37:03;98173.16;;;4.79;67.84
42519;BME280;28147;47.520;18.920;2023-12-20T08:39:28;98174.56;;;5.08;66.49
42519;BME280;28147;47.520;18.920;2023-12-20T08:41:56;98169.63;;;5.58;66.17
42519;BME280;28147;47.520;18.920;2023-12-20T08:44:21;98176.34;;;5.61;65.88
42519;BME280;28147;47.520;18.920;2023-12-20T08:46:47;98163.25;;;5.99;65.54
42519;BME280;28147;47.520;18.920;2023-12-20T08:49:13;98177.16;;;5.55;68.15
42519;BME280;28147;47.520;18.920;2023-12-20T08:51:38;98171.25;;;5.66;67.22
42519;BME280;28147;47.520;18.920;2023-12-20T08:54:06;98169.59;;;6.30;66.05
42519;BME280;28147;47.520;18.920;2023-12-20T08:56:33;98178.25;;;6.44;65.34
42519;BME280;28147;47.520;18.920;2023-12-20T08:58:59;98169.53;;;6.75;65.20
42519;BME280;28147;47.520;18.920;2023-12-20T09:01:24;98177.31;;;6.95;65.04
42519;BME280;28147;47.520;18.920;2023-12-20T09:03:49;98171.09;;;7.07;65.06
42519;BME280;28147;47.520;18.920;2023-12-20T09:06:14;98177.75;;;7.17;64.88
42519;BME280;28147;47.520;18.920;2023-12-20T09:08:41;98175.81;;;7.49;64.66
42519;BME280;28147;47.520;18.920;2023-12-20T09:11:06;98164.78;;;7.52;63.13
42519;BME280;28147;47.520;18.920;2023-12-20T09:13:32;98169.50;;;7.87;63.20
42519;BME280;28147;47.520;18.920;2023-12-20T09:15:57;98163.09;;;7.76;61.72
42519;BME280;28147;47.520;18.920;2023-12-20T09:18:23;98172.16;;;7.87;62.92
42519;BME280;28147;47.520;18.920;2023-12-20T09:20:49;98167.63;;;8.42;61.09
42519;BME280;28147;47.520;18.920;2023-12-20T09:23:14;98147.63;;;8.10;62.46
42519;BME280;28147;47.520;18.920;2023-12-20T09:25:40;98147.66;;;8.21;60.09
42519;BME280;28147;47.520;18.920;2023-12-20T09:28:05;98142.00;;;8.18;60.58
42519;BME280;28147;47.520;18.920;2023-12-20T09:30:30;98144.28;;;8.74;59.68
42519;BME280;28147;47.520;18.920;2023-12-20T09:32:56;98133.59;;;8.21;61.52
42519;BME280;28147;47.520;18.920;2023-12-20T09:35:22;98130.00;;;7.85;60.95
42519;BME280;28147;47.520;18.920;2023-12-20T09:37:47;98123.19;;;8.08;62.43
42519;BME280;28147;47.520;18.920;2023-12-20T09:40:13;98112.41;;;8.51;62.59
42519;BME280;28147;47.520;18.920;2023-12-20T09:42:55;98114.50;;;8.61;61.80
42519;BME280;28147;47.520;18.920;2023-12-20T09:45:21;98118.69;;;8.68;62.63
42519;BME280;28147;47.520;18.920;2023-12-20T09:47:48;98105.53;;;8.85;63.13
42519;BME280;28147;47.520;18.920;2023-12-20T09:50:17;98099.84;;;7.98;63.03
42519;BME280;28147;47.520;18.920;2023-12-20T09:52:43;98098.34;;;7.72;63.51
42519;BME280;28147;47.520;18.920;2023-12-20T09:55:08;98105.72;;;8.18;62.51
42519;BME280;28147;47.520;18.920;2023-12-20T09:57:34;98092.38;;;8.07;64.29
42519;BME280;28147;47.520;18.920;2023-12-20T10:00:00;98101.06;;;8.44;63.58
42519;BME280;28147;47.520;18.920;2023-12-20T10:02:26;98088.94;;;9.25;61.42
42519;BME280;28147;47.520;18.920;2023-12-20T10:04:54;98103.91;;;9.31;61.50
42519;BME280;28147;47.520;18.920;2023-12-20T10:07:19;98094.22;;;9.48;59.96
42519;BME280;28147;47.520;18.920;2023-12-20T10:09:46;98085.66;;;9.35;59.74
42519;BME280;28147;47.520;18.920;2023-12-20T10:12:12;98086.97;;;9.72;60.18
42519;BME280;28147;47.520;18.920;2023-12-20T10:14:38;98090.69;;;9.71;59.15
42519;BME280;28147;47.520;18.920;2023-12-20T10:17:04;98065.53;;;9.50;59.51
42519;BME280;28147;47.520;18.920;2023-12-20T10:19:31;98056.63;;;9.97;59.75
42519;BME280;28147;47.520;18.920;2023-12-20T10:21:58;98041.72;;;10.41;58.30
42519;BME280;28147;47.520;18.920;2023-12-20T10:24:24;98051.81;;;10.73;57.20
42519;BME280;28147;47.520;18.920;2023-12-20T10:27:01;98058.03;;;10.62;57.78
42519;BME280;28147;47.520;18.920;2023-12-20T10:29:26;98047.84;;;10.92;57.14
42519;BME280;28147;47.520;18.920;2023-12-20T10:31:51;98035.25;;;11.05;56.14
42519;BME280;28147;47.520;18.920;2023-12-20T10:34:22;98033.19;;;10.56;57.54
42519;BME280;28147;47.520;18.920;2023-12-20T10:36:47;98029.84;;;11.00;57.45
42519;BME280;28147;47.520;18.920;2023-12-20T10:39:14;98013.19;;;10.87;57.38
42519;BME280;28147;47.520;18.920;2023-12-20T10:41:41;98024.41;;;11.11;56.78
42519;BME280;28147;47.520;18.920;2023-12-20T10:44:08;98029.44;;;11.08;57.17
42519;BME280;28147;47.520;18.920;2023-12-20T10:46:35;98026.78;;;11.30;56.36
42519;BME280;28147;47.520;18.920;2023-12-20T10:49:02;98021.41;;;10.69;57.94
42519;BME280;28147;47.520;18.920;2023-12-20T10:51:31;98018.84;;;11.13;57.64
42519;BME280;28147;47.520;18.920;2023-12-20T10:53:56;98009.31;;;10.61;58.13
42519;BME280;28147;47.520;18.920;2023-12-20T10:56:22;98027.53;;;10.86;57.76
42519;BME280;28147;47.520;18.920;2023-12-20T10:58:50;98023.50;;;10.67;58.92
42519;BME280;28147;47.520;18.920;2023-12-20T11:01:17;98014.50;;;10.22;59.33
42519;BME280;28147;47.520;18.920;2023-12-20T11:03:53;98022.63;;;10.28;58.12
42519;BME280;28147;47.520;18.920;2023-12-20T11:09:25;98009.31;;;10.44;57.51
42519;BME280;28147;47.520;18.920;2023-12-20T11:14:27;98005.22;;;11.31;55.38
42519;BME280;28147;47.520;18.920;2023-12-20T11:17:09;97990.34;;;11.35;55.48
42519;BME280;28147;47.520;18.920;2023-12-20T11:22:21;97983.09;;;11.09;55.52
42519;BME280;28147;47.520;18.920;2023-12-20T11:24:49;97983.41;;;11.56;53.82
42519;BME280;28147;47.520;18.920;2023-12-20T11:27:15;97965.50;;;11.79;54.49
42519;BME280;28147;47.520;18.920;2023-12-20T11:29:41;97970.28;;;12.04;53.40
42519;BME280;28147;47.520;18.920;2023-12-20T11:34:59;97978.06;;;12.05;53.57
42519;BME280;28147;47.520;18.920;2023-12-20T11:37:32;97980.59;;;11.68;54.65
42519;BME280;28147;47.520;18.920;2023-12-20T11:40:07;97977.31;;;11.39;55.90
42519;BME280;28147;47.520;18.920;2023-12-20T11:42:42;97984.28;;;11.18;55.97
42519;BME280;28147;47.520;18.920;2023-12-20T11:45:11;97981.09;;;10.99;56.66
42519;BME280;28147;47.520;18.920;2023-12-20T11:47:40;97968.97;;;11.08;56.55
42519;BME280;28147;47.520;18.920;2023-12-20T11:50:06;97982.47;;;11.02;57.01
42519;BME280;28147;47.520;18.920;2023-12-20T11:52:31;97980.53;;;10.97;57.39
42519;BME280;28147;47.520;18.920;2023-12-20T11:54:57;97977.31;;;10.95;57.56
42519;BME280;28147;47.520;18.920;2023-12-20T11:57:22;97961.75;;;10.65;58.03
42519;BME280;28147;47.520;18.920;2023-12-20T11:59:48;97962.44;;;10.60;58.09
42519;BME280;28147;47.520;18.920;2023-12-20T12:02:13;97957.84;;;10.56;58.87
42519;BME280;28147;47.520;18.920;2023-12-20T12:04:41;97939.41;;;10.15;60.58
42519;BME280;28147;47.520;18.920;2023-12-20T12:07:07;97933.59;;;10.18;60.83
42519;BME280;28147;47.520;18.920;2023-12-20T12:09:32;97943.34;;;10.13;60.12
42519;BME280;28147;47.520;18.920;2023-12-20T12:11:57;97951.72;;;9.31;63.13
42519;BME280;28147;47.520;18.920;2023-12-20T12:14:24;97941.75;;;8.97;63.84
42519;BME280;28147;47.520;18.920;2023-12-20T12:16:49;97948.16;;;8.61;64.86
42519;BME280;28147;47.520;18.920;2023-12-20T12:19:26;97931.31;;;8.56;65.31
42519;BME280;28147;47.520;18.920;2023-12-20T12:22:13;97947.00;;;8.34;65.88
42519;BME280;28147;47.520;18.920;2023-12-20T12:24:43;97947.66;;;8.29;65.88
42519;BME280;28147;47.520;18.920;2023-12-20T12:27:09;97960.63;;;7.95;67.15
42519;BME280;28147;47.520;18.920;2023-12-20T12:29:35;97964.78;;;7.91;66.79
42519;BME280;28147;47.520;18.920;2023-12-20T12:32:05;97967.34;;;8.10;66.46
42519;BME280;28147;47.520;18.920;2023-12-20T12:34:31;97953.13;;;7.80;67.00
42519;BME280;28147;47.520;18.920;2023-12-20T12:36:57;97956.56;;;7.69;67.19
42519;BME280;28147;47.520;18.920;2023-12-20T12:39:23;97947.88;;;7.62;67.55
42519;BME280;28147;47.520;18.920;2023-12-20T12:41:50;97950.38;;;7.87;67.16
42519;BME280;28147;47.520;18.920;2023-12-20T12:44:15;97960.25;;;7.80;66.75
42519;BME280;28147;47.520;18.920;2023-12-20T12:46:41;97961.69;;;7.64;67.20
42519;BME280;28147;47.520;18.920;2023-12-20T12:49:06;97949.19;;;7.41;67.88
42519;BME280;28147;47.520;18.920;2023-12-20T12:51:31;97956.59;;;7.51;67.55
42519;BME280;28147;47.520;18.920;2023-12-20T12:53:57;97945.63;;;6.99;69.05
42519;BME280;28147;47.520;18.920;2023-12-20T12:56:22;97950.63;;;7.07;68.87
42519;BME280;28147;47.520;18.920;2023-12-20T12:58:48;97947.97;;;7.07;68.70
42519;BME280;28147;47.520;18.920;2023-12-20T13:01:13;97931.91;;;6.90;69.06
42519;BME280;28147;47.520;18.920;2023-12-20T13:03:39;97924.81;;;7.02;68.98
42519;BME280;28147;47.520;18.920;2023-12-20T13:06:05;97925.50;;;6.79;69.27
42519;BME280;28147;47.520;18.920;2023-12-20T13:08:31;97934.75;;;6.89;69.32
42519;BME280;28147;47.520;18.920;2023-12-20T13:10:57;97922.84;;;6.61;69.89
42519;BME280;28147;47.520;18.920;2023-12-20T13:13:26;97922.03;;;6.42;71.41
42519;BME280;28147;47.520;18.920;2023-12-20T13:15:51;97926.59;;;6.53;71.16
42519;BME280;28147;47.520;18.920;2023-12-20T13:18:20;97911.47;;;6.61;70.58
42519;BME280;28147;47.520;18.920;2023-12-20T13:20:45;97905.56;;;6.40;70.94
42519;BME280;28147;47.520;18.920;2023-12-20T13:23:11;97901.16;;;6.34;71.42
42519;BME280;28147;47.520;18.920;2023-12-20T13:25:36;97897.47;;;6.35;71.64
42519;BME280;28147;47.520;18.920;2023-12-20T13:28:02;97905.56;;;6.40;71.45
42519;BME280;28147;47.520;18.920;2023-12-20T13:30:28;97917.09;;;6.46;71.33
42519;BME280;28147;47.520;18.920;2023-12-20T13:36:56;97906.44;;;6.34;72.01
42519;BME280;28147;47.520;18.920;2023-12-20T13:39:21;97902.84;;;6.47;71.90
42519;BME280;28147;47.520;18.920;2023-12-20T13:41:47;97908.38;;;6.45;72.09
42519;BME280;28147;47.520;18.920;2023-12-20T13:44:12;97911.69;;;6.41;72.21
42519;BME280;28147;47.520;18.920;2023-12-20T13:46:38;97914.72;;;6.19;72.76
42519;BME280;28147;47.520;18.920;2023-12-20T13:49:03;97900.47;;;6.20;72.98
42519;BME280;28147;47.520;18.920;2023-12-20T13:51:30;97898.88;;;6.19;73.23
42519;BME280;28147;47.520;18.920;2023-12-20T13:53:55;97894.38;;;6.20;72.90
42519;BME280;28147;47.520;18.920;2023-12-20T13:56:21;97908.63;;;5.94;74.06
42519;BME280;28147;47.520;18.920;2023-12-20T13:58:48;97896.47;;;5.86;74.44
42519;BME280;28147;47.520;18.920;2023-12-20T14:03:06;97902.31;;;5.63;75.24
42519;BME280;28147;47.520;18.920;2023-12-20T14:05:32;97902.06;;;5.71;74.88
42519;BME280;28147;47.520;18.920;2023-12-20T14:07:58;97911.25;;;5.69;74.79
42519;BME280;28147;47.520;18.920;2023-12-20T14:10:24;97914.63;;;5.76;74.90
42519;BME280;28147;47.520;18.920;2023-12-20T14:12:52;97911.66;;;5.66;75.28
42519;BME280;28147;47.520;18.920;2023-12-20T14:15:17;97922.22;;;5.66;74.97
42519;BME280;28147;47.520;18.920;2023-12-20T14:17:42;97926.50;;;5.60;75.67
42519;BME280;28147;47.520;18.920;2023-12-20T14:20:08;97925.44;;;5.68;75.38
42519;BME280;28147;47.520;18.920;2023-12-20T14:22:34;97916.59;;;5.55;75.70
42519;BME280;28147;47.520;18.920;2023-12-20T14:27:05;97923.66;;;5.61;75.21
42519;BME280;28147;47.520;18.920;2023-12-20T14:29:31;97920.00;;;5.63;75.03
42519;BME280;28147;47.520;18.920;2023-12-20T14:31:56;97921.53;;;5.77;74.93
42519;BME280;28147;47.520;18.920;2023-12-20T14:34:21;97914.84;;;5.74;74.75
42519;BME280;28147;47.520;18.920;2023-12-20T14:36:48;97926.50;;;5.92;73.69
42519;BME280;28147;47.520;18.920;2023-12-20T14:39:14;97935.97;;;5.74;74.13
42519;BME280;28147;47.520;18.920;2023-12-20T14:41:48;97931.06;;;5.78;73.93
42519;BME280;28147;47.520;18.920;2023-12-20T14:44:13;97920.28;;;5.79;73.73
42519;BME280;28147;47.520;18.920;2023-12-20T14:46:39;97932.13;;;5.70;74.67
42519;BME280;28147;47.520;18.920;2023-12-20T14:49:05;97929.22;;;5.78;74.24
42519;BME280;28147;47.520;18.920;2023-12-20T14:51:30;97919.63;;;5.59;74.97
42519;BME280;28147;47.520;18.920;2023-12-20T14:53:55;97941.13;;;5.63;75.46
42519;BME280;28147;47.520;18.920;2023-12-20T14:56:23;97938.22;;;5.71;74.82
42519;BME280;28147;47.520;18.920;2023-12-20T14:58:48;97950.25;;;5.67;75.29
42519;BME280;28147;47.520;18.920;2023-12-20T15:01:14;97962.88;;;5.58;75.74
42519;BME280;28147;47.520;18.920;2023-12-20T15:03:57;97959.06;;;5.85;74.66
42519;BME280;28147;47.520;18.920;2023-12-20T15:06:23;97962.97;;;5.76;74.74
42519;BME280;28147;47.520;18.920;2023-12-20T15:08:48;97983.13;;;5.71;75.30
42519;BME280;28147;47.520;18.920;2023-12-20T15:12:40;97979.97;;;5.49;75.86
42519;BME280;28147;47.520;18.920;2023-12-20T15:15:06;97986.56;;;5.71;75.30
42519;BME280;28147;47.520;18.920;2023-12-20T15:18:54;97993.97;;;5.56;75.25
42519;BME280;28147;47.520;18.920;2023-12-20T15:24:19;97995.16;;;5.60;76.00
42519;BME280;28147;47.520;18.920;2023-12-20T15:26:52;98002.09;;;5.54;75.63
42519;BME280;28147;47.520;18.920;2023-12-20T15:34:51;97995.22;;;5.47;76.62
42519;BME280;28147;47.520;18.920;2023-12-20T15:37:18;98000.75;;;5.39;76.07
42519;BME280;28147;47.520;18.920;2023-12-20T15:39:43;98009.16;;;5.60;76.22
42519;BME280;28147;47.520;18.920;2023-12-20T15:49:30;98018.22;;;5.78;75.49
42519;BME280;28147;47.520;18.920;2023-12-20T15:53:45;98029.56;;;5.85;75.87
42519;BME280;28147;47.520;18.920;2023-12-20T15:56:10;98032.03;;;5.80;75.77
42519;BME280;28147;47.520;18.920;2023-12-20T15:58:36;98037.75;;;5.70;76.60
42519;BME280;28147;47.520;18.920;2023-12-20T16:02:11;98032.78;;;5.87;76.52
42519;BME280;28147;47.520;18.920;2023-12-20T16:04:36;98058.41;;;5.86;76.61
42519;BME280;28147;47.520;18.920;2023-12-20T16:08:26;98053.78;;;5.75;77.35
42519;BME280;28147;47.520;18.920;2023-12-20T16:10:52;98038.31;;;5.79;76.87
42519;BME280;28147;47.520;18.920;2023-12-20T16:14:04;98054.25;;;5.59;77.29
42519;BME280;28147;47.520;18.920;2023-12-20T16:16:52;98043.94;;;5.57;77.49
42519;BME280;28147;47.520;18.920;2023-12-20T16:26:58;98040.25;;;5.65;76.83
42519;BME280;28147;47.520;18.920;2023-12-20T16:29:24;98031.59;;;5.83;76.40
42519;BME280;28147;47.520;18.920;2023-12-20T16:40:42;98048.00;;;5.53;76.55
42519;BME280;28147;47.520;18.920;2023-12-20T16:44:20;98049.13;;;5.71;75.80
42519;BME280;28147;47.520;18.920;2023-12-20T16:46:45;98059.69;;;5.71;75.90
42519;BME280;28147;47.520;18.920;2023-12-20T16:49:11;98064.16;;;5.70;75.67
42519;BME280;28147;47.520;18.920;2023-12-20T16:51:46;98074.00;;;5.50;75.87
42519;BME280;28147;47.520;18.920;2023-12-20T16:58:11;98083.28;;;5.72;74.89
42519;BME280;28147;47.520;18.920;2023-12-20T17:00:37;98075.75;;;5.69;75.00
42519;BME280;28147;47.520;18.920;2023-12-20T17:03:25;98076.28;;;5.84;74.75
42519;BME280;28147;47.520;18.920;2023-12-20T17:07:57;98082.25;;;5.73;74.92
42519;BME280;28147;47.520;18.920;2023-12-20T17:13:59;98087.88;;;5.83;72.53
42519;BME280;28147;47.520;18.920;2023-12-20T17:16:25;98086.22;;;5.89;71.39
42519;BME280;28147;47.520;18.920;2023-12-20T17:18:50;98087.84;;;5.97;71.50
42519;BME280;28147;47.520;18.920;2023-12-20T17:21:17;98100.47;;;5.95;72.00
42519;BME280;28147;47.520;18.920;2023-12-20T17:23:43;98100.84;;;5.92;72.26
42519;BME280;28147;47.520;18.920;2023-12-20T17:26:09;98095.59;;;5.85;72.39
42519;BME280;28147;47.520;18.920;2023-12-20T17:28:34;98097.88;;;5.75;72.52
42519;BME280;28147;47.520;18.920;2023-12-20T17:30:59;98099.84;;;5.93;71.76
42519;BME280;28147;47.520;18.920;2023-12-20T17:33:25;98110.63;;;5.91;71.20
42519;BME280;28147;47.520;18.920;2023-12-20T17:35:50;98105.50;;;6.03;70.67
42519;BME280;28147;47.520;18.920;2023-12-20T17:38:16;98109.19;;;5.95;70.88
42519;BME280;28147;47.520;18.920;2023-12-20T17:40:51;98105.94;;;5.93;70.79
42519;BME280;28147;47.520;18.920;2023-12-20T17:43:19;98123.59;;;5.99;71.38
42519;BME280;28147;47.520;18.920;2023-12-20T17:45:44;98131.06;;;5.57;72.67
42519;BME280;28147;47.520;18.920;2023-12-20T17:48:10;98133.41;;;5.79;72.16
42519;BME280;28147;47.520;18.920;2023-12-20T17:50:35;98140.56;;;5.65;72.44
42519;BME280;28147;47.520;18.920;2023-12-20T17:53:00;98140.59;;;5.58;72.47
42519;BME280;28147;47.520;18.920;2023-12-20T17:55:26;98139.81;;;5.45;74.10
42519;BME280;28147;47.520;18.920;2023-12-20T17:57:51;98147.47;;;5.59;74.23
42519;BME280;28147;47.520;18.920;2023-12-20T18:00:31;98144.81;;;5.73;73.58
42519;BME280;28147;47.520;18.920;2023-12-20T18:02:57;98154.34;;;5.74;73.62
42519;BME280;28147;47.520;18.920;2023-12-20T18:05:23;98156.38;;;5.72;73.78
42519;BME280;28147;47.520;18.920;2023-12-20T18:07:50;98153.53;;;5.80;73.38
42519;BME280;28147;47.520;18.920;2023-12-20T18:10:15;98171.34;;;5.98;73.34
42519;BME280;28147;47.520;18.920;2023-12-20T18:12:40;98173.59;;;5.94;73.27
42519;BME280;28147;47.520;18.920;2023-12-20T18:15:06;98177.47;;;5.85;73.23
42519;BME280;28147;47.520;18.920;2023-12-20T18:17:32;98175.50;;;5.60;73.88
42519;BME280;28147;47.520;18.920;2023-12-20T18:19:57;98173.47;;;5.76;73.58
42519;BME280;28147;47.520;18.920;2023-12-20T18:22:25;98164.81;;;5.29;74.47
42519;BME280;28147;47.520;18.920;2023-12-20T18:24:50;98175.53;;;5.47;74.35
42519;BME280;28147;47.520;18.920;2023-12-20T18:27:15;98181.25;;;5.31;74.00
42519;BME280;28147;47.520;18.920;2023-12-20T18:29:41;98164.59;;;5.37;74.02
42519;BME280;28147;47.520;18.920;2023-12-20T18:34:16;98171.72;;;5.17;74.77
42519;BME280;28147;47.520;18.920;2023-12-20T18:36:41;98166.25;;;5.25;74.75
42519;BME280;28147;47.520;18.920;2023-12-20T18:40:04;98164.63;;;5.24;74.65
42519;BME280;28147;47.520;18.920;2023-12-20T18:42:31;98168.88;;;5.25;73.47
42519;BME280;28147;47.520;18.920;2023-12-20T18:44:56;98159.75;;;5.07;73.96
42519;BME280;28147;47.520;18.920;2023-12-20T18:47:22;98162.59;;;4.99;74.13
42519;BME280;28147;47.520;18.920;2023-12-20T18:55:33;98151.22;;;5.32;73.14
42519;BME280;28147;47.520;18.920;2023-12-20T18:57:59;98144.72;;;5.15;73.99
42519;BME280;28147;47.520;18.920;2023-12-20T19:00:24;98161.34;;;5.35;74.55
42519;BME280;28147;47.520;18.920;2023-12-20T19:03:10;98163.19;;;5.28;75.36
42519;BME280;28147;47.520;18.920;2023-12-20T19:05:36;98166.66;;;5.08;74.61
42519;BME280;28147;47.520;18.920;2023-12-20T19:08:02;98170.28;;;5.07;73.94
42519;BME280;28147;47.520;18.920;2023-12-20T19:10:27;98185.53;;;5.12;74.02
42519;BME280;28147;47.520;18.920;2023-12-20T19:15:44;98172.94;;;5.07;73.64
42519;BME280;28147;47.520;18.920;2023-12-20T19:18:09;98189.19;;;4.98;74.40
42519;BME280;28147;47.520;18.920;2023-12-20T19:21:34;98192.00;;;4.76;74.47
42519;BME280;28147;47.520;18.920;2023-12-20T19:23:59;98205.81;;;4.98;73.75
42519;BME280;28147;47.520;18.920;2023-12-20T19:35:49;98204.38;;;4.62;74.17
42519;BME280;28147;47.520;18.920;2023-12-20T19:38:14;98199.06;;;4.49;75.56
42519;BME280;28147;47.520;18.920;2023-12-20T19:40:40;98208.22;;;4.67;75.74
42519;BME280;28147;47.520;18.920;2023-12-20T19:43:06;98207.16;;;4.54;76.18
42519;BME280;28147;47.520;18.920;2023-12-20T19:45:34;98216.28;;;4.45;76.23
42519;BME280;28147;47.520;18.920;2023-12-20T19:47:59;98211.63;;;4.54;75.59
42519;BME280;28147;47.520;18.920;2023-12-20T19:50:35;98211.84;;;4.52;75.20
42519;BME280;28147;47.520;18.920;2023-12-20T19:53:00;98208.56;;;4.37;75.70
42519;BME280;28147;47.520;18.920;2023-12-20T19:57:02;98218.72;;;4.40;75.36
42519;BME280;28147;47.520;18.920;2023-12-20T19:59:28;98207.50;;;4.25;75.43
42519;BME280;28147;47.520;18.920;2023-12-20T20:01:53;98191.31;;;4.34;74.48
42519;BME280;28147;47.520;18.920;2023-12-20T20:04:20;98213.81;;;4.37;74.64
42519;BME280;28147;47.520;18.920;2023-12-20T20:08:16;98201.63;;;4.23;74.79
42519;BME280;28147;47.520;18.920;2023-12-20T20:14:21;98206.75;;;4.51;74.17
42519;BME280;28147;47.520;18.920;2023-12-20T20:20:15;98214.53;;;4.11;75.30
42519;BME280;28147;47.520;18.920;2023-12-20T20:22:40;98218.47;;;4.28;74.65
42519;BME280;28147;47.520;18.920;2023-12-20T20:25:06;98214.84;;;4.36;74.63
42519;BME280;28147;47.520;18.920;2023-12-20T20:28:49;98221.91;;;4.29;74.05
42519;BME280;28147;47.520;18.920;2023-12-20T20:34:32;98222.28;;;4.26;74.00
42519;BME280;28147;47.520;18.920;2023-12-20T20:43:09;98213.34;;;4.13;73.26
42519;BME280;28147;47.520;18.920;2023-12-20T20:45:34;98218.00;;;4.18;73.31
42519;BME280;28147;47.520;18.920;2023-12-20T20:48:00;98205.13;;;3.88;74.35
42519;BME280;28147;47.520;18.920;2023-12-20T20:50:25;98212.22;;;3.88;75.03
42519;BME280;28147;47.520;18.920;2023-12-20T20:52:50;98207.16;;;3.93;76.49
42519;BME280;28147;47.520;18.920;2023-12-20T20:55:16;98216.47;;;3.89;75.00
42519;BME280;28147;47.520;18.920;2023-12-20T20:57:42;98214.41;;;3.84;75.07
42519;BME280;28147;47.520;18.920;2023-12-20T21:00:07;98211.09;;;3.69;75.21
42519;BME280;28147;47.520;18.920;2023-12-20T21:02:33;98212.63;;;3.92;76.00
42519;BME280;28147;47.520;18.920;2023-12-20T21:04:58;98212.50;;;3.65;76.44
42519;BME280;28147;47.520;18.920;2023-12-20T21:09:52;98211.91;;;3.70;76.97
42519;BME280;28147;47.520;18.920;2023-12-20T21:12:18;98213.78;;;3.82;78.57
42519;BME280;28147;47.520;18.920;2023-12-20T21:14:43;98211.03;;;3.97;77.56
42519;BME280;28147;47.520;18.920;2023-12-20T21:17:09;98204.72;;;3.92;76.11
42519;BME280;28147;47.520;18.920;2023-12-20T21:19:34;98196.97;;;4.25;74.71
42519;BME280;28147;47.520;18.920;2023-12-20T21:22:00;98200.13;;;4.07;74.47
42519;BME280;28147;47.520;18.920;2023-12-20T21:24:26;98198.94;;;4.09;74.52
42519;BME280;28147;47.520;18.920;2023-12-20T21:26:51;98195.94;;;4.26;74.30
42519;BME280;28147;47.520;18.920;2023-12-20T21:29:16;98191.81;;;4.03;75.22
42519;BME280;28147;47.520;18.920;2023-12-20T21:31:42;98191.81;;;4.03;75.09
42519;BME280;28147;47.520;18.920;2023-12-20T21:34:07;98194.84;;;4.00;74.56
42519;BME280;28147;47.520;18.920;2023-12-20T21:36:32;98194.16;;;3.85;76.07
42519;BME280;28147;47.520;18.920;2023-12-20T21:38:58;98198.69;;;4.04;75.30
42519;BME280;28147;47.520;18.920;2023-12-20T21:41:23;98201.84;;;4.34;73.99
42519;BME280;28147;47.520;18.920;2023-12-20T21:43:48;98190.75;;;3.91;74.87
42519;BME280;28147;47.520;18.920;2023-12-20T21:46:14;98194.25;;;4.05;75.62
42519;BME280;28147;47.520;18.920;2023-12-20T21:48:39;98196.88;;;3.98;75.37
42519;BME280;28147;47.520;18.920;2023-12-20T21:51:04;98206.28;;;4.21;75.66
42519;BME280;28147;47.520;18.920;2023-12-20T21:53:30;98206.22;;;4.07;75.02
42519;BME280;28147;47.520;18.920;2023-12-20T21:58:07;98205.22;;;4.15;73.43
42519;BME280;28147;47.520;18.920;2023-12-20T22:00:33;98211.03;;;3.97;73.49
42519;BME280;28147;47.520;18.920;2023-12-20T22:02:59;98212.25;;;3.95;73.89
42519;BME280;28147;47.520;18.920;2023-12-20T22:05:25;98217.47;;;3.88;74.23
42519;BME280;28147;47.520;18.920;2023-12-20T22:07:50;98216.75;;;4.07;74.08
42519;BME280;28147;47.520;18.920;2023-12-20T22:10:17;98214.47;;;3.91;73.65
42519;BME280;28147;47.520;18.920;2023-12-20T22:12:42;98212.53;;;3.72;74.41
42519;BME280;28147;47.520;18.920;2023-12-20T22:17:10;98199.09;;;3.60;75.10
42519;BME280;28147;47.520;18.920;2023-12-20T22:19:35;98201.81;;;3.73;74.10
42519;BME280;28147;47.520;18.920;2023-12-20T22:22:01;98210.03;;;3.63;74.03
42519;BME280;28147;47.520;18.920;2023-12-20T22:24:28;98202.13;;;3.63;74.39
42519;BME280;28147;47.520;18.920;2023-12-20T22:26:53;98197.72;;;3.71;73.43
42519;BME280;28147;47.520;18.920;2023-12-20T22:29:20;98195.50;;;3.68;74.15
42519;BME280;28147;47.520;18.920;2023-12-20T22:31:45;98195.09;;;3.64;74.08
42519;BME280;28147;47.520;18.920;2023-12-20T22:34:11;98185.31;;;3.58;73.84
42519;BME280;28147;47.520;18.920;2023-12-20T22:42:00;98200.34;;;3.36;74.93